createdAt,value
2019-01-29T00:02:10.327Z,12.07
2019-01-29T00:04:40.617Z,12.97
2019-01-29T00:07:10.966Z,14.00
2019-01-29T00:09:41.275Z,10.00
2019-01-29T00:12:11.667Z,11.53
2019-01-29T00:14:42.016Z,9.57
2019-01-29T00:17:12.429Z,14.43
2019-01-29T00:19:42.825Z,10.93
2019-01-29T00:22:13.456Z,11.53
2019-01-29T00:24:43.859Z,9.77
2019-01-29T00:27:14.191Z,12.30
2019-01-29T00:29:44.526Z,7.70
2019-01-29T00:32:14.930Z,10.17
2019-01-29T00:34:50.048Z,15.30
2019-01-29T00:37:21.460Z,13.43
2019-01-29T00:39:54.876Z,12.80
2019-01-29T00:42:25.263Z,6.83
2019-01-29T00:44:55.672Z,9.00
2019-01-29T00:47:26.078Z,14.93
2019-01-29T00:49:56.522Z,15.87
2019-01-29T00:52:26.847Z,13.20
2019-01-29T00:54:57.588Z,16.40
2019-01-29T00:57:27.910Z,14.67
2019-01-29T00:59:58.332Z,11.47
2019-01-29T01:02:28.721Z,13.00
2019-01-29T01:04:59.392Z,8.90
2019-01-29T01:07:31.611Z,12.83
2019-01-29T01:10:02.153Z,13.73
2019-01-29T01:12:32.661Z,12.20
2019-01-29T01:15:03.088Z,13.43
2019-01-29T01:17:33.684Z,8.87
2019-01-29T01:20:05.031Z,9.60
2019-01-29T01:22:37.170Z,20.73
2019-01-29T01:25:07.697Z,14.60
2019-01-29T01:27:38.149Z,13.00
2019-01-29T01:30:12.776Z,13.20
2019-01-29T01:32:44.021Z,16.47
2019-01-29T01:35:14.445Z,17.00
2019-01-29T01:37:44.867Z,11.83
2019-01-29T01:40:20.408Z,17.77
2019-01-29T01:42:50.775Z,10.93
2019-01-29T01:45:21.103Z,14.67
2019-01-29T01:47:51.539Z,15.37
2019-01-29T01:50:21.904Z,17.63
2019-01-29T01:52:59.146Z,18.07
2019-01-29T01:55:24.896Z,15.43
2019-01-29T01:57:56.002Z,19.07
2019-01-29T02:00:26.662Z,20.20
2019-01-29T02:02:58.881Z,22.27
2019-01-29T02:05:29.249Z,17.50
2019-01-29T02:07:59.598Z,16.43
2019-01-29T02:10:30.964Z,17.33
2019-01-29T02:13:01.623Z,23.70
2019-01-29T02:15:32.027Z,22.03
2019-01-29T02:18:02.542Z,21.30
2019-01-29T02:20:33.243Z,25.33
2019-01-29T02:23:08.130Z,21.07
2019-01-29T02:25:36.614Z,17.30
2019-01-29T02:28:07.328Z,20.70
2019-01-29T02:30:37.736Z,24.73
2019-01-29T02:33:08.152Z,22.30
2019-01-29T02:35:39.536Z,21.07
2019-01-29T02:38:12.880Z,25.13
2019-01-29T02:40:43.512Z,18.67
2019-01-29T02:43:14.665Z,21.70
2019-01-29T02:45:47.543Z,20.47
2019-01-29T02:48:18.464Z,20.13
2019-01-29T02:50:48.824Z,23.57
2019-01-29T02:53:19.510Z,27.87
2019-01-29T02:55:50.152Z,21.43
2019-01-29T02:58:20.537Z,26.13
2019-01-29T03:00:50.918Z,23.90
2019-01-29T03:03:21.381Z,21.20
2019-01-29T03:05:51.756Z,27.37
2019-01-29T03:08:22.144Z,26.97
2019-01-29T03:10:52.753Z,23.83
2019-01-29T03:13:26.345Z,27.00
2019-01-29T03:15:56.686Z,25.07
2019-01-29T03:18:27.088Z,23.30
2019-01-29T03:20:57.841Z,21.50
2019-01-29T03:23:28.816Z,26.83
2019-01-29T03:25:59.152Z,25.30
2019-01-29T03:28:29.883Z,28.53
2019-01-29T03:31:00.266Z,25.63
2019-01-29T03:33:33.458Z,27.57
2019-01-29T03:36:03.863Z,25.23
2019-01-29T03:38:36.231Z,29.53
2019-01-29T03:41:06.607Z,27.33
2019-01-29T03:43:36.955Z,23.73
2019-01-29T03:46:07.344Z,27.20
2019-01-29T03:48:37.972Z,25.10
2019-01-29T03:51:08.330Z,25.93
2019-01-29T03:53:38.651Z,22.93
2019-01-29T03:56:09.008Z,21.23
2019-01-29T03:58:39.417Z,25.77
2019-01-29T04:01:09.786Z,26.87
2019-01-29T04:03:41.610Z,27.73
2019-01-29T04:06:11.954Z,24.53
2019-01-29T04:08:42.716Z,24.63
2019-01-29T04:11:13.300Z,29.97
2019-01-29T04:13:43.667Z,26.60
2019-01-29T04:16:14.027Z,24.30
2019-01-29T04:18:44.722Z,26.40
2019-01-29T04:21:15.095Z,24.50
2019-01-29T04:23:47.743Z,24.37
2019-01-29T04:26:17.657Z,23.60
2019-01-29T04:28:48.058Z,20.57
2019-01-29T04:31:18.636Z,28.57
2019-01-29T04:33:49.025Z,22.77
2019-01-29T04:36:20.720Z,24.63
2019-01-29T04:38:51.280Z,23.00
2019-01-29T04:41:37.495Z,21.40
2019-01-29T04:44:12.649Z,21.57
2019-01-29T04:46:43.117Z,23.03
2019-01-29T04:49:13.697Z,21.27
2019-01-29T04:51:45.267Z,20.47
2019-01-29T04:54:15.654Z,19.90
2019-01-29T04:56:46.018Z,24.37
2019-01-29T04:59:17.059Z,24.07
2019-01-29T05:01:47.483Z,22.20
2019-01-29T05:04:17.917Z,20.53
2019-01-29T05:06:49.741Z,27.93
2019-01-29T05:09:23.330Z,24.77
2019-01-29T05:11:54.314Z,23.93
2019-01-29T05:14:24.724Z,27.17
2019-01-29T05:16:55.211Z,27.47
2019-01-29T05:19:25.648Z,23.40
2019-01-29T05:21:56.134Z,23.53
2019-01-29T05:24:26.505Z,25.00
2019-01-29T05:26:58.337Z,23.87
2019-01-29T05:29:31.844Z,23.23
2019-01-29T05:32:02.190Z,22.27
2019-01-29T05:34:34.936Z,22.77
2019-01-29T05:37:05.677Z,25.93
2019-01-29T05:39:36.045Z,24.80
2019-01-29T05:42:07.928Z,24.83
2019-01-29T05:44:38.229Z,22.37
2019-01-29T05:47:08.665Z,23.07
2019-01-29T05:49:39.359Z,20.73
2019-01-29T05:52:13.136Z,21.40
2019-01-29T05:54:43.662Z,24.33
2019-01-29T05:57:16.484Z,23.77
2019-01-29T05:59:46.870Z,23.47
2019-01-29T06:02:17.645Z,25.13
2019-01-29T06:04:48.011Z,27.93
2019-01-29T06:07:18.503Z,22.50
2019-01-29T06:09:49.326Z,23.30
2019-01-29T06:12:19.825Z,26.23
2019-01-29T06:14:52.439Z,30.10
2019-01-29T06:17:27.546Z,29.80
2019-01-29T06:19:56.956Z,24.33
2019-01-29T06:22:27.271Z,27.40
2019-01-29T06:24:57.666Z,31.37
2019-01-29T06:27:28.989Z,25.97
2019-01-29T06:29:59.409Z,30.50
2019-01-29T06:32:29.805Z,31.67
2019-01-29T06:35:00.330Z,27.67
2019-01-29T06:37:33.200Z,33.07
2019-01-29T06:40:03.592Z,30.63
2019-01-29T06:42:34.408Z,28.20
2019-01-29T06:45:06.132Z,31.47
2019-01-29T06:47:39.950Z,29.50
2019-01-29T06:50:13.110Z,30.97
2019-01-29T06:52:43.760Z,37.53
2019-01-29T06:55:18.728Z,33.37
2019-01-29T06:57:55.708Z,32.23
2019-01-29T07:00:25.739Z,31.47
2019-01-29T07:02:56.539Z,29.97
2019-01-29T07:05:29.865Z,28.60
2019-01-29T07:08:01.773Z,31.17
2019-01-29T07:10:32.726Z,33.27
2019-01-29T07:13:03.366Z,36.50
2019-01-29T07:16:12.613Z,31.83
2019-01-29T07:19:06.913Z,31.17
2019-01-29T07:21:37.344Z,33.10
2019-01-29T07:24:08.154Z,27.13
2019-01-29T07:26:38.483Z,28.17
2019-01-29T07:29:08.853Z,35.23
2019-01-29T07:31:39.260Z,29.03
2019-01-29T07:34:09.613Z,29.77
2019-01-29T07:36:39.961Z,25.07
2019-01-29T07:39:11.585Z,29.30
2019-01-29T07:41:43.448Z,27.40
2019-01-29T07:44:15.885Z,26.20
2019-01-29T07:46:46.359Z,29.23
2019-01-29T07:49:17.791Z,24.90
2019-01-29T07:51:48.332Z,33.67
2019-01-29T07:54:18.706Z,27.40
2019-01-29T07:56:52.407Z,29.93
2019-01-29T07:59:32.578Z,47.93
2019-01-29T08:01:55.122Z,26.20
2019-01-29T08:04:25.783Z,29.83
2019-01-29T08:06:56.558Z,28.73
2019-01-29T08:09:26.918Z,21.70
2019-01-29T08:11:58.721Z,26.67
2019-01-29T08:14:29.291Z,25.47
2019-01-29T08:17:03.209Z,27.80
2019-01-29T08:19:33.633Z,26.03
2019-01-29T08:22:06.102Z,28.80
2019-01-29T08:24:38.512Z,30.83
2019-01-29T08:27:09.799Z,28.87
2019-01-29T08:29:40.207Z,23.37
2019-01-29T08:32:11.151Z,39.67
2019-01-29T08:34:42.300Z,28.30
2019-01-29T08:37:15.793Z,26.30
2019-01-29T08:39:49.488Z,25.33
2019-01-29T08:42:19.866Z,22.47
2019-01-29T08:44:53.391Z,22.53
2019-01-29T08:47:23.855Z,26.50
2019-01-29T08:49:54.199Z,23.27
2019-01-29T08:52:24.664Z,23.40
2019-01-29T08:54:55.174Z,23.60
2019-01-29T08:57:25.628Z,30.50
2019-01-29T08:59:58.896Z,22.93
2019-01-29T09:02:29.305Z,28.47
2019-01-29T09:05:00.178Z,24.27
2019-01-29T09:07:30.797Z,26.60
2019-01-29T09:10:01.117Z,34.53
2019-01-29T09:12:31.693Z,23.37
2019-01-29T09:15:05.660Z,22.00
2019-01-29T09:17:39.263Z,25.73
2019-01-29T09:20:10.955Z,24.77
2019-01-29T09:22:41.368Z,27.07
2019-01-29T09:25:21.032Z,26.27
2019-01-29T09:27:47.087Z,24.87
2019-01-29T09:30:20.573Z,28.93
2019-01-29T09:32:51.346Z,24.87
2019-01-29T09:35:22.396Z,24.17
2019-01-29T09:37:54.449Z,24.80
2019-01-29T09:40:24.849Z,24.03
2019-01-29T09:42:55.236Z,26.83
2019-01-29T09:45:25.798Z,24.93
2019-01-29T09:47:56.748Z,20.57
2019-01-29T09:50:28.576Z,22.93
2019-01-29T09:53:01.907Z,20.63
2019-01-29T09:55:34.612Z,18.97
2019-01-29T09:58:05.138Z,24.27
2019-01-29T10:00:37.518Z,20.03
2019-01-29T10:03:08.146Z,24.90
2019-01-29T10:05:38.573Z,26.67
2019-01-29T10:08:08.958Z,21.50
2019-01-29T10:10:42.633Z,22.63
2019-01-29T10:13:13.130Z,20.57
2019-01-29T10:15:43.453Z,22.60
2019-01-29T10:18:13.891Z,18.77
2019-01-29T10:20:45.249Z,28.63
2019-01-29T10:23:15.967Z,26.73
2019-01-29T10:25:46.414Z,24.87
2019-01-29T10:28:16.831Z,22.33
2019-01-29T10:30:47.220Z,23.43
2019-01-29T10:33:18.144Z,19.03
2019-01-29T10:35:48.512Z,22.80
2019-01-29T10:38:19.605Z,26.23
2019-01-29T10:40:49.977Z,20.57
2019-01-29T10:43:20.769Z,18.87
2019-01-29T10:45:51.251Z,22.37
2019-01-29T10:48:21.753Z,18.33
2019-01-29T10:50:55.544Z,18.57
2019-01-29T10:53:25.902Z,16.00
2019-01-29T10:55:56.829Z,14.67
2019-01-29T10:58:27.262Z,12.87
2019-01-29T11:00:57.768Z,15.10
2019-01-29T11:03:30.617Z,12.20
2019-01-29T11:06:00.958Z,14.00
2019-01-29T11:08:31.599Z,15.17
2019-01-29T11:11:02.339Z,12.73
2019-01-29T11:13:32.742Z,18.97
2019-01-29T11:16:03.116Z,9.90
2019-01-29T11:18:36.515Z,10.23
2019-01-29T11:21:09.083Z,10.20
2019-01-29T11:23:40.480Z,13.40
2019-01-29T11:26:12.652Z,8.30
2019-01-29T11:28:43.046Z,9.00
2019-01-29T11:31:15.009Z,11.17
2019-01-29T11:33:45.502Z,9.90
2019-01-29T11:36:16.290Z,17.07
2019-01-29T11:38:46.677Z,9.90
2019-01-29T11:41:19.814Z,14.73
2019-01-29T11:43:50.811Z,10.70
2019-01-29T11:46:21.646Z,10.27
2019-01-29T11:48:52.353Z,6.67
2019-01-29T11:51:24.750Z,7.13
2019-01-29T11:53:55.151Z,8.73
2019-01-29T11:56:27.791Z,11.93
2019-01-29T11:58:59.181Z,8.57
2019-01-29T12:01:32.258Z,8.60
2019-01-29T12:04:02.406Z,5.43
2019-01-29T12:06:33.619Z,8.80
2019-01-29T12:09:05.667Z,7.30
2019-01-29T12:11:36.679Z,8.23
2019-01-29T12:14:09.846Z,6.80
2019-01-29T12:16:40.764Z,8.27
2019-01-29T12:19:15.473Z,2.87
2019-01-29T12:21:45.847Z,5.53
2019-01-29T12:24:16.205Z,10.63
2019-01-29T12:26:46.578Z,10.10
2019-01-29T12:29:19.976Z,3.90
2019-01-29T12:31:50.376Z,7.80
2019-01-29T12:34:20.754Z,8.07
2019-01-29T12:36:51.171Z,7.07
2019-01-29T12:42:46.800Z,12.03
2019-01-29T12:45:17.459Z,11.77
2019-01-29T12:47:47.865Z,5.07
2019-01-29T12:50:20.355Z,8.80
2019-01-29T12:52:59.899Z,8.47
2019-01-29T12:55:30.337Z,6.67
2019-01-29T12:58:00.651Z,8.80
2019-01-29T13:00:36.119Z,4.77
2019-01-29T13:03:06.809Z,4.13
2019-01-29T13:05:37.259Z,10.87
2019-01-29T13:08:08.092Z,6.43
2019-01-29T13:10:38.476Z,7.60
2019-01-29T13:13:09.167Z,11.60
2019-01-29T13:15:39.582Z,6.93
2019-01-29T13:18:09.980Z,4.57
2019-01-29T13:20:40.425Z,6.77
2019-01-29T13:23:11.779Z,4.37
2019-01-29T13:25:45.125Z,4.23
2019-01-29T13:28:15.554Z,6.20
2019-01-29T13:30:46.337Z,3.90
2019-01-29T13:33:50.343Z,7.53
2019-01-29T13:36:30.546Z,11.27
2019-01-29T13:42:27.689Z,8.07
2019-01-29T13:45:03.741Z,6.90
2019-01-29T13:47:39.789Z,8.03
2019-01-29T13:50:13.521Z,3.30
2019-01-29T13:52:43.821Z,5.67
2019-01-29T13:55:16.892Z,6.07
2019-01-29T13:57:50.114Z,11.43
2019-01-29T14:00:26.091Z,6.20
2019-01-29T14:02:56.503Z,8.17
2019-01-29T14:05:27.216Z,6.17
2019-01-29T14:08:03.034Z,14.87
2019-01-29T14:10:33.417Z,6.40
2019-01-29T14:13:06.501Z,4.00
2019-01-29T14:15:43.514Z,7.73
2019-01-29T14:18:16.188Z,6.80
2019-01-29T14:20:46.957Z,7.07
2019-01-29T14:23:17.509Z,6.77
2019-01-29T14:25:47.874Z,5.00
2019-01-29T14:28:18.267Z,5.20
2019-01-29T14:30:48.727Z,6.83
2019-01-29T14:33:19.220Z,7.93
2019-01-29T14:35:50.615Z,5.97
2019-01-29T14:39:03.697Z,8.57
2019-01-29T14:41:34.171Z,14.90
2019-01-29T14:44:06.609Z,10.67
2019-01-29T14:46:37.090Z,5.73
2019-01-29T14:49:07.722Z,7.57
2019-01-29T14:51:38.065Z,5.60
2019-01-29T14:54:08.663Z,8.77
2019-01-29T14:56:39.275Z,15.93
2019-01-29T14:59:09.754Z,7.30
2019-01-29T15:01:43.900Z,7.03
2019-01-29T15:04:14.346Z,5.13
2019-01-29T15:06:44.735Z,4.07
2019-01-29T15:09:20.316Z,7.57
2019-01-29T15:11:50.884Z,6.53
2019-01-29T15:14:21.286Z,6.20
2019-01-29T15:17:25.628Z,5.73
2019-01-29T15:19:56.819Z,7.03
2019-01-29T15:22:27.110Z,5.83
2019-01-29T15:24:57.651Z,9.73
2019-01-29T15:27:28.070Z,12.73
2019-01-29T15:29:58.423Z,7.30
2019-01-29T15:32:28.705Z,7.37
2019-01-29T15:34:59.106Z,5.93
2019-01-29T15:37:29.458Z,9.80
2019-01-29T15:40:01.139Z,14.23
2019-01-29T15:42:34.700Z,9.70
2019-01-29T15:45:11.386Z,6.40
2019-01-29T15:47:44.039Z,6.67
2019-01-29T15:50:17.352Z,8.70
2019-01-29T15:52:48.589Z,8.43
2019-01-29T15:55:20.114Z,7.23
2019-01-29T15:57:51.547Z,7.80
2019-01-29T16:00:24.693Z,10.07
2019-01-29T16:02:55.053Z,5.57
2019-01-29T16:05:26.847Z,9.83
2019-01-29T16:07:57.187Z,11.07
2019-01-29T16:10:39.149Z,11.33
2019-01-29T16:13:04.607Z,12.30
2019-01-29T16:15:37.342Z,7.07
2019-01-29T16:18:07.887Z,6.47
2019-01-29T16:20:38.207Z,11.90
2019-01-29T16:23:08.783Z,8.37
2019-01-29T16:25:39.398Z,13.20
2019-01-29T16:28:09.753Z,6.20
2019-01-29T16:30:40.262Z,9.73
2019-01-29T16:33:10.671Z,6.57
2019-01-29T16:35:41.217Z,7.33
2019-01-29T16:38:15.631Z,7.60
2019-01-29T16:40:49.279Z,6.57
2019-01-29T16:43:19.755Z,13.27
2019-01-29T16:45:50.181Z,7.77
2019-01-29T16:48:20.657Z,8.33
2019-01-29T16:50:51.151Z,8.90
2019-01-29T16:53:21.789Z,6.10
2019-01-29T16:55:52.343Z,7.40
2019-01-29T16:58:22.751Z,11.33
2019-01-29T17:00:55.572Z,6.27
2019-01-29T17:03:28.305Z,10.37
2019-01-29T17:05:58.945Z,8.60
2019-01-29T17:08:29.627Z,10.10
2019-01-29T17:11:00.110Z,11.07
2019-01-29T17:13:30.450Z,9.23
2019-01-29T17:16:00.933Z,11.63
2019-01-29T17:18:31.378Z,11.27
2019-01-29T17:21:01.729Z,11.20
2019-01-29T17:23:32.229Z,8.27
2019-01-29T17:26:02.671Z,7.17
2019-01-29T17:28:33.146Z,6.40
2019-01-29T17:31:03.578Z,9.13
2019-01-29T17:33:34.007Z,8.43
2019-01-29T17:36:04.744Z,7.73
2019-01-29T17:38:44.393Z,7.70
2019-01-29T17:41:09.959Z,6.97
2019-01-29T17:43:41.126Z,12.80
2019-01-29T17:46:11.539Z,10.47
2019-01-29T17:48:43.374Z,9.47
2019-01-29T17:51:14.049Z,9.63
2019-01-29T17:53:44.451Z,7.10
2019-01-29T17:56:15.072Z,6.33
2019-01-29T17:58:45.518Z,8.90
2019-01-29T18:01:16.717Z,7.07
2019-01-29T18:03:47.119Z,9.17
2019-01-29T18:06:17.545Z,6.67
2019-01-29T18:08:50.195Z,8.77
2019-01-29T18:11:20.191Z,7.77
2019-01-29T18:13:51.190Z,11.30
2019-01-29T18:16:25.316Z,10.77
2019-01-29T18:18:55.780Z,10.23
2019-01-29T18:21:26.218Z,6.93
2019-01-29T18:23:56.757Z,8.57
2019-01-29T18:26:27.612Z,15.67
2019-01-29T18:28:58.147Z,6.53
2019-01-29T18:31:28.772Z,7.77
2019-01-29T18:33:59.302Z,7.07
2019-01-29T18:36:29.696Z,12.40
2019-01-29T18:39:00.077Z,7.43
2019-01-29T18:41:30.759Z,7.40
2019-01-29T18:44:01.269Z,9.63
2019-01-29T18:46:33.825Z,9.47
2019-01-29T18:49:06.309Z,8.90
2019-01-29T18:51:36.919Z,8.93
2019-01-29T18:54:07.260Z,14.07
2019-01-29T18:56:37.763Z,8.00
2019-01-29T18:59:11.494Z,10.77
2019-01-29T19:01:41.946Z,10.50
2019-01-29T19:04:12.326Z,7.20
2019-01-29T19:06:42.779Z,9.10
2019-01-29T19:09:13.160Z,7.93
2019-01-29T19:11:44.177Z,7.40
2019-01-29T19:14:14.713Z,7.87
2019-01-29T19:16:45.094Z,10.67
2019-01-29T19:19:15.749Z,9.10
2019-01-29T19:21:48.253Z,7.23
2019-01-29T19:24:18.689Z,9.80
2019-01-29T19:26:49.060Z,8.13
2019-01-29T19:29:19.519Z,5.97
2019-01-29T19:31:49.944Z,11.40
2019-01-29T19:34:20.424Z,9.87
2019-01-29T19:36:50.913Z,12.83
2019-01-29T19:39:21.357Z,11.20
2019-01-29T19:41:51.748Z,10.30
2019-01-29T19:44:22.231Z,7.03
2019-01-29T19:46:54.722Z,9.93
2019-01-29T19:49:25.170Z,7.60
2019-01-29T19:51:55.512Z,13.10
2019-01-29T19:54:25.954Z,13.13
2019-01-29T19:56:56.496Z,10.23
2019-01-29T19:59:27.642Z,14.17
2019-01-29T20:01:58.098Z,10.30
2019-01-29T20:04:28.572Z,10.93
2019-01-29T20:06:59.404Z,8.07
2019-01-29T20:09:32.521Z,18.33
2019-01-29T20:12:03.128Z,8.00
2019-01-29T20:14:33.503Z,9.47
2019-01-29T20:17:07.125Z,10.63
2019-01-29T20:19:40.072Z,9.13
2019-01-29T20:22:13.156Z,9.80
2019-01-29T20:24:44.039Z,8.47
2019-01-29T20:27:14.696Z,7.77
2019-01-29T20:29:46.054Z,7.67
2019-01-29T20:32:19.784Z,12.50
2019-01-29T20:34:50.262Z,12.53
2019-01-29T20:37:20.686Z,9.73
2019-01-29T20:39:51.578Z,11.43
2019-01-29T20:42:21.991Z,12.23
2019-01-29T20:44:52.463Z,9.30
2019-01-29T20:47:22.972Z,13.37
2019-01-29T20:49:56.304Z,9.23
2019-01-29T20:52:26.771Z,13.87
2019-01-29T20:54:57.341Z,10.87
2019-01-29T20:57:27.726Z,9.00
2019-01-29T20:59:58.153Z,9.67
2019-01-29T21:02:28.718Z,10.27
2019-01-29T21:05:02.801Z,9.13
2019-01-29T21:07:33.435Z,7.03
2019-01-29T21:10:04.133Z,7.57
2019-01-29T21:12:34.334Z,8.03
2019-01-29T21:15:05.329Z,12.00
2019-01-29T21:17:35.756Z,7.37
2019-01-29T21:20:07.469Z,7.37
2019-01-29T21:22:37.870Z,7.47
2019-01-29T21:25:09.651Z,7.60
2019-01-29T21:27:40.015Z,8.90
2019-01-29T21:30:17.311Z,6.00
2019-01-29T21:32:47.764Z,11.07
2019-01-29T21:35:18.088Z,5.10
2019-01-29T21:37:48.602Z,6.50
2019-01-29T21:40:19.208Z,4.57
2019-01-29T21:42:49.763Z,6.60
2019-01-29T21:45:20.079Z,5.23
2019-01-29T21:47:50.500Z,6.63
2019-01-29T21:50:23.194Z,9.80
2019-01-29T21:52:53.704Z,6.17
2019-01-29T21:55:24.136Z,6.50
2019-01-29T21:57:54.496Z,7.77
2019-01-29T22:00:33.354Z,13.90
2019-01-29T22:03:03.752Z,5.53
2019-01-29T22:05:34.124Z,8.57
2019-01-29T22:08:04.594Z,7.20
2019-01-29T22:10:35.315Z,9.87
2019-01-29T22:13:07.278Z,5.63
2019-01-29T22:15:37.729Z,11.07
2019-01-29T22:18:11.455Z,9.07
2019-01-29T22:20:42.018Z,7.53
2019-01-29T22:23:12.716Z,7.40
2019-01-29T22:25:42.992Z,9.30
2019-01-29T22:28:13.313Z,6.00
2019-01-29T22:30:44.290Z,8.87
2019-01-29T22:33:14.634Z,10.10
2019-01-29T22:35:44.983Z,10.70
2019-01-29T22:38:15.338Z,7.77
2019-01-29T22:40:45.666Z,8.97
2019-01-29T22:43:15.979Z,8.53
2019-01-29T22:45:46.386Z,7.57
2019-01-29T22:48:16.799Z,12.27
2019-01-29T22:50:47.203Z,7.10
2019-01-29T22:53:17.601Z,6.97
2019-01-29T22:55:47.892Z,10.13
2019-01-29T22:58:19.296Z,10.27
2019-01-29T23:01:20.084Z,6.93
2019-01-29T23:03:54.098Z,11.37
2019-01-29T23:06:48.008Z,6.27
2019-01-29T23:09:18.496Z,7.17
2019-01-29T23:11:50.037Z,9.10
2019-01-29T23:14:20.407Z,6.57
2019-01-29T23:16:51.573Z,8.63
2019-01-29T23:19:24.715Z,7.77
2019-01-29T23:21:55.179Z,8.73
2019-01-29T23:24:26.426Z,8.37
2019-01-29T23:26:56.756Z,8.70
2019-01-29T23:29:30.162Z,8.53
2019-01-29T23:32:00.536Z,10.10
2019-01-29T23:34:30.922Z,8.03
2019-01-29T23:37:01.402Z,9.60
2019-01-29T23:39:32.007Z,7.70
2019-01-29T23:42:02.363Z,9.63
2019-01-29T23:44:32.651Z,8.47
2019-01-29T23:47:03.039Z,8.80
2019-01-29T23:49:33.480Z,9.13
2019-01-29T23:52:03.872Z,9.40
2019-01-29T23:54:34.276Z,9.03
2019-01-29T23:57:04.687Z,11.60
2019-01-29T23:59:35.605Z,7.50
